createdAt,value
2023-11-02T00:01:08.611Z,97242.56
2023-11-02T00:03:37.566Z,97196.16
2023-11-02T00:06:22.869Z,97236.16
2023-11-02T00:09:26.357Z,97220.56
2023-11-02T00:11:58.546Z,97211.84
2023-11-02T00:14:32.411Z,97156.69
2023-11-02T00:16:59.255Z,97188.03
2023-11-02T00:19:39.099Z,97156.03
2023-11-02T00:22:12.480Z,97152.03
2023-11-02T00:24:42.231Z,97141.84
2023-11-02T00:27:09.572Z,97145.75
2023-11-02T00:29:36.518Z,97086.09
2023-11-02T00:32:03.198Z,97120.06
2023-11-02T00:34:30.179Z,97109.47
2023-11-02T00:36:59.385Z,97101.41
2023-11-02T00:39:26.433Z,97085.47
2023-11-02T00:41:53.886Z,97068.88
2023-11-02T00:44:21.351Z,97058.72
2023-11-02T00:46:48.398Z,97049.75
2023-11-02T00:49:33.409Z,97041.88
2023-11-02T00:52:02.464Z,97026.16
2023-11-02T00:54:57.081Z,97003.94
2023-11-02T00:57:27.973Z,96998.56
2023-11-02T00:59:56.992Z,96982.91
2023-11-02T01:02:34.648Z,96973.00
2023-11-02T01:05:04.417Z,96965.81
2023-11-02T01:07:34.701Z,96944.94
2023-11-02T01:10:07.352Z,96944.88
2023-11-02T01:12:39.136Z,96936.94
2023-11-02T01:15:12.997Z,96904.16
2023-11-02T01:17:41.476Z,96928.28
2023-11-02T01:20:37.537Z,96857.31
2023-11-02T01:23:07.036Z,96866.34
2023-11-02T01:25:44.493Z,96890.81
2023-11-02T01:28:20.409Z,96889.97
2023-11-02T01:30:54.483Z,96890.88
2023-11-02T01:33:38.448Z,96871.19
2023-11-02T01:36:09.373Z,96921.06
2023-11-02T01:38:36.709Z,96931.94
2023-11-02T01:41:05.911Z,96906.94
2023-11-02T01:43:42.619Z,96877.53
2023-11-02T01:46:25.353Z,96882.66
2023-11-02T01:49:10.458Z,96810.47
2023-11-02T01:51:57.407Z,96782.22
2023-11-02T01:54:52.050Z,96786.72
2023-11-02T01:57:49.615Z,96760.59
2023-11-02T02:00:17.957Z,96759.44
2023-11-02T02:03:05.813Z,96697.97
2023-11-02T02:06:06.942Z,96712.63
2023-11-02T02:09:01.093Z,96693.63
2023-11-02T02:11:55.776Z,96667.66
2023-11-02T02:14:31.486Z,96665.16
2023-11-02T02:17:08.950Z,96654.13
2023-11-02T02:19:41.280Z,96641.34
2023-11-02T02:22:15.077Z,96620.69
2023-11-02T02:24:53.883Z,96595.75
2023-11-02T02:27:23.235Z,96581.19
2023-11-02T02:29:58.653Z,96563.13
2023-11-02T02:32:49.910Z,96532.88
2023-11-02T02:35:25.697Z,96490.16
2023-11-02T02:38:01.710Z,96498.38
2023-11-02T02:40:46.342Z,96461.22
2023-11-02T02:43:13.550Z,96455.88
2023-11-02T02:45:45.273Z,96436.91
2023-11-02T02:48:14.204Z,96428.09
2023-11-02T02:50:46.937Z,96407.66
2023-11-02T02:53:17.788Z,96395.22
2023-11-02T02:55:45.188Z,96380.19
2023-11-02T02:58:14.408Z,96344.41
2023-11-02T03:00:43.364Z,96326.44
2023-11-02T03:03:13.658Z,96302.16
2023-11-02T03:05:41.421Z,96291.78
2023-11-02T03:08:10.887Z,96273.28
2023-11-02T03:10:42.691Z,96248.03
2023-11-02T03:13:14.355Z,96260.19
2023-11-02T03:15:45.209Z,96210.56
2023-11-02T03:18:13.882Z,96222.25
2023-11-02T03:20:48.932Z,96209.19
2023-11-02T03:23:44.650Z,96214.19
2023-11-02T03:26:27.624Z,96216.78
2023-11-02T03:29:07.646Z,96209.94
2023-11-02T03:31:43.151Z,96197.06
2023-11-02T03:34:12.601Z,96186.81
2023-11-02T03:36:48.261Z,96179.97
2023-11-02T03:39:30.576Z,96157.25
2023-11-02T03:42:24.481Z,96176.88
2023-11-02T03:45:16.254Z,96147.75
2023-11-02T03:48:14.072Z,96146.13
2023-11-02T03:51:04.967Z,96123.78
2023-11-02T03:54:03.967Z,96111.66
2023-11-02T03:57:09.499Z,96095.28
2023-11-02T03:59:48.744Z,96095.34
2023-11-02T04:02:38.125Z,96075.53
2023-11-02T04:05:31.754Z,96049.94
2023-11-02T04:08:00.341Z,96044.63
2023-11-02T04:10:31.124Z,96042.00
2023-11-02T04:13:53.345Z,96010.56
2023-11-02T04:16:24.422Z,95995.19
2023-11-02T04:18:53.602Z,96006.94
2023-11-02T04:21:20.502Z,95992.28
2023-11-02T04:23:47.181Z,95977.81
2023-11-02T04:26:13.935Z,95945.19
2023-11-02T04:28:41.347Z,95960.22
2023-11-02T04:31:08.060Z,95959.59
2023-11-02T04:33:35.034Z,95947.56
2023-11-02T04:36:01.868Z,95929.44
2023-11-02T04:38:28.655Z,95921.53
2023-11-02T04:40:55.515Z,95906.25
2023-11-02T04:43:22.339Z,95884.66
2023-11-02T04:45:51.092Z,95860.63
2023-11-02T04:48:18.046Z,95852.00
2023-11-02T04:50:45.328Z,95860.88
2023-11-02T04:53:14.437Z,95854.06
2023-11-02T04:55:42.503Z,95830.03
2023-11-02T04:58:09.189Z,95807.09
2023-11-02T05:00:37.556Z,95787.88
2023-11-02T05:03:05.602Z,95773.84
2023-11-02T05:05:32.659Z,95774.28
2023-11-02T05:07:59.748Z,95780.78
2023-11-02T05:10:28.875Z,95747.44
2023-11-02T05:12:55.569Z,95754.34
2023-11-02T05:15:22.413Z,95742.94
2023-11-02T05:17:49.086Z,95717.94
2023-11-02T05:20:15.721Z,95718.47
2023-11-02T05:22:43.182Z,95710.25
2023-11-02T05:25:09.988Z,95690.84
2023-11-02T05:27:36.885Z,95698.31
2023-11-02T05:30:07.596Z,95679.09
2023-11-02T05:32:34.279Z,95668.50
2023-11-02T05:35:00.966Z,95659.72
2023-11-02T05:37:27.666Z,95602.34
2023-11-02T05:39:56.727Z,95600.84
2023-11-02T05:42:25.689Z,95639.13
2023-11-02T05:44:52.537Z,95615.09
2023-11-02T05:47:19.175Z,95623.00
2023-11-02T05:49:45.967Z,95612.41
2023-11-02T05:52:12.682Z,95608.69
2023-11-02T05:54:39.355Z,95590.38
2023-11-02T05:57:06.171Z,95577.66
2023-11-02T05:59:32.991Z,95560.47
2023-11-02T06:02:02.426Z,95544.72
2023-11-02T06:04:29.280Z,95566.38
2023-11-02T06:06:56.051Z,95565.47
2023-11-02T06:09:22.974Z,95554.88
2023-11-02T06:11:49.771Z,95564.25
2023-11-02T06:14:16.385Z,95545.34
2023-11-02T06:16:43.079Z,95547.50
2023-11-02T06:19:11.992Z,95537.25
2023-11-02T06:21:38.628Z,95542.94
2023-11-02T06:24:05.733Z,95533.81
2023-11-02T06:26:37.271Z,95529.88
2023-11-02T06:29:06.117Z,95563.06
2023-11-02T06:31:32.875Z,95556.53
2023-11-02T06:33:59.675Z,95558.00
2023-11-02T06:36:26.520Z,95559.88
2023-11-02T06:38:53.176Z,95547.97
2023-11-02T06:41:20.128Z,95514.31
2023-11-02T06:43:46.924Z,95555.88
2023-11-02T06:46:13.592Z,95554.53
2023-11-02T06:48:40.353Z,95576.63
2023-11-02T06:51:12.286Z,95583.59
2023-11-02T06:53:39.096Z,95586.31
2023-11-02T06:56:07.006Z,95596.88
2023-11-02T06:58:38.229Z,95597.91
2023-11-02T07:01:08.462Z,95607.59
2023-11-02T07:03:37.468Z,95600.28
2023-11-02T07:06:08.209Z,95615.72
2023-11-02T07:08:37.650Z,95617.47
2023-11-02T07:11:04.895Z,95606.00
2023-11-02T07:13:32.098Z,95636.91
2023-11-02T07:15:59.362Z,95606.09
2023-11-02T07:18:26.608Z,95658.09
2023-11-02T07:20:53.446Z,95660.13
2023-11-02T07:23:20.243Z,95679.94
2023-11-02T07:25:47.315Z,95682.63
2023-11-02T07:28:14.728Z,95662.97
2023-11-02T07:30:41.700Z,95702.22
2023-11-02T07:33:11.197Z,95721.59
2023-11-02T07:35:37.995Z,95678.09
2023-11-02T07:38:06.941Z,95743.94
2023-11-02T07:40:33.598Z,95735.72
2023-11-02T07:43:00.337Z,95768.84
2023-11-02T07:45:27.170Z,95767.97
2023-11-02T07:47:53.889Z,95766.63
2023-11-02T07:50:20.658Z,95799.75
2023-11-02T07:52:47.355Z,95810.81
2023-11-02T07:55:14.352Z,95797.72
2023-11-02T07:57:41.134Z,95838.97
2023-11-02T08:00:09.053Z,95850.06
2023-11-02T08:02:35.747Z,95854.94
2023-11-02T08:05:05.787Z,95840.97
2023-11-02T08:07:32.522Z,95863.66
2023-11-02T08:09:59.299Z,95879.16
2023-11-02T08:12:27.087Z,95894.28
2023-11-02T08:14:55.831Z,95911.44
2023-11-02T08:17:24.515Z,95905.88
2023-11-02T08:19:51.253Z,95928.84
2023-11-02T08:22:18.047Z,95918.16
2023-11-02T08:24:45.173Z,95942.16
2023-11-02T08:27:11.902Z,95946.56
2023-11-02T08:29:38.733Z,95953.41
2023-11-02T08:32:05.676Z,95963.75
2023-11-02T08:34:32.763Z,95977.56
2023-11-02T08:37:00.221Z,95986.22
2023-11-02T08:39:27.068Z,96009.34
2023-11-02T08:41:54.219Z,96006.44
2023-11-02T08:44:23.355Z,96011.47
2023-11-02T08:46:51.879Z,96029.97
2023-11-02T08:49:19.581Z,96057.53
2023-11-02T08:51:46.406Z,96074.78
2023-11-02T08:54:13.846Z,96057.31
2023-11-02T08:56:42.838Z,96068.25
2023-11-02T08:59:09.762Z,96124.66
2023-11-02T09:01:39.000Z,96124.53
2023-11-02T09:04:05.926Z,96154.53
2023-11-02T09:06:32.902Z,96161.00
2023-11-02T09:08:59.742Z,96190.72
2023-11-02T09:11:30.839Z,96195.31
2023-11-02T09:13:58.680Z,96207.69
2023-11-02T09:16:28.023Z,96220.00
2023-11-02T09:18:56.251Z,96205.59
2023-11-02T09:21:23.102Z,96249.72
2023-11-02T09:23:49.942Z,96256.16
2023-11-02T09:26:19.638Z,96276.03
2023-11-02T09:28:49.500Z,96294.25
2023-11-02T09:31:18.610Z,96311.56
2023-11-02T09:33:48.568Z,96316.75
2023-11-02T09:36:18.640Z,96305.13
2023-11-02T09:38:45.321Z,96317.38
2023-11-02T09:41:12.492Z,96323.75
2023-11-02T09:43:42.373Z,96341.31
2023-11-02T09:46:14.035Z,96371.00
2023-11-02T09:48:41.596Z,96371.28
2023-11-02T09:51:10.480Z,96404.19
2023-11-02T09:53:39.759Z,96413.03
2023-11-02T09:56:10.153Z,96429.44
2023-11-02T09:58:38.311Z,96436.41
2023-11-02T10:01:05.935Z,96444.28
2023-11-02T10:03:32.678Z,96436.19
2023-11-02T10:05:59.635Z,96463.53
2023-11-02T10:08:26.593Z,96455.44
2023-11-02T10:11:10.103Z,96487.84
2023-11-02T10:13:36.858Z,96507.78
2023-11-02T10:16:03.959Z,96514.66
2023-11-02T10:18:31.918Z,96508.00
2023-11-02T10:20:59.000Z,96517.31
2023-11-02T10:23:28.688Z,96484.59
2023-11-02T10:25:58.888Z,96528.91
2023-11-02T10:28:25.774Z,96528.00
2023-11-02T10:30:58.800Z,96552.50
2023-11-02T10:33:31.436Z,96571.19
2023-11-02T10:35:59.798Z,96575.25
2023-11-02T10:38:29.250Z,96568.06
2023-11-02T10:40:56.210Z,96585.97
2023-11-02T10:43:25.444Z,96573.97
2023-11-02T10:45:54.128Z,96591.47
2023-11-02T10:48:21.784Z,96597.84
2023-11-02T10:50:54.382Z,96594.22
2023-11-02T10:53:45.984Z,96619.06
2023-11-02T10:56:19.386Z,96616.94
2023-11-02T10:58:48.208Z,96622.59
2023-11-02T11:01:15.197Z,96623.19
2023-11-02T11:03:43.254Z,96585.78
2023-11-02T11:06:13.755Z,96649.50
2023-11-02T11:08:41.676Z,96622.38
2023-11-02T11:11:10.378Z,96628.66
2023-11-02T11:13:37.952Z,96642.34
2023-11-02T11:16:11.839Z,96659.16
2023-11-02T11:18:42.861Z,96649.19
2023-11-02T11:21:10.966Z,96661.91
2023-11-02T11:23:46.499Z,96675.41
2023-11-02T11:26:13.723Z,96686.69
2023-11-02T11:28:42.819Z,96684.13
2023-11-02T11:31:50.280Z,96693.44
2023-11-02T11:34:19.322Z,96685.97
2023-11-02T11:36:46.066Z,96712.31
2023-11-02T11:39:31.931Z,96718.25
2023-11-02T11:41:59.617Z,96724.13
2023-11-02T11:44:26.961Z,96720.69
2023-11-02T11:46:58.145Z,96712.84
2023-11-02T11:49:33.443Z,96721.41
2023-11-02T11:52:05.141Z,96709.00
2023-11-02T11:54:34.672Z,96737.38
2023-11-02T11:57:01.806Z,96739.50
2023-11-02T11:59:56.539Z,96752.69
2023-11-02T12:02:37.364Z,96760.09
2023-11-02T12:05:04.812Z,96724.47
2023-11-02T12:07:32.863Z,96758.41
2023-11-02T12:10:06.827Z,96807.09
2023-11-02T12:12:37.587Z,96791.47
2023-11-02T12:15:25.608Z,96812.66
2023-11-02T12:17:54.896Z,96828.84
2023-11-02T12:20:35.711Z,96818.16
2023-11-02T12:23:02.798Z,96824.28
2023-11-02T12:25:34.223Z,96792.81
2023-11-02T12:28:01.624Z,96844.41
2023-11-02T12:30:30.499Z,96861.25
2023-11-02T12:32:57.472Z,96858.63
2023-11-02T12:35:25.554Z,96861.66
2023-11-02T12:38:05.263Z,96876.31
2023-11-02T12:40:51.841Z,96891.41
2023-11-02T12:43:25.423Z,96885.09
2023-11-02T12:45:56.628Z,96863.13
2023-11-02T12:48:31.470Z,96902.53
2023-11-02T12:51:01.553Z,96906.47
2023-11-02T12:53:32.336Z,96875.44
2023-11-02T12:56:01.541Z,96930.53
2023-11-02T12:58:31.284Z,96906.34
2023-11-02T13:01:00.255Z,96927.28
2023-11-02T13:03:28.278Z,96949.81
2023-11-02T13:05:57.507Z,96950.38
2023-11-02T13:08:24.309Z,96965.28
2023-11-02T13:10:55.182Z,96944.47
2023-11-02T13:13:22.317Z,96989.22
2023-11-02T13:15:56.270Z,96963.84
2023-11-02T13:18:26.200Z,96966.97
2023-11-02T13:20:54.496Z,96996.94
2023-11-02T13:23:21.709Z,96995.75
2023-11-02T13:25:48.997Z,97016.41
2023-11-02T13:28:16.472Z,97032.97
2023-11-02T13:30:43.926Z,97033.97
2023-11-02T13:33:11.786Z,97038.69
2023-11-02T13:35:41.601Z,97048.00
2023-11-02T13:38:09.190Z,97039.91
2023-11-02T13:40:36.103Z,97051.28
2023-11-02T13:43:05.549Z,97077.81
2023-11-02T13:45:35.086Z,97061.63
2023-11-02T13:48:02.201Z,97090.09
2023-11-02T13:50:31.281Z,97063.88
2023-11-02T13:53:00.516Z,97067.44
2023-11-02T13:55:27.390Z,97094.22
2023-11-02T13:57:54.533Z,97120.81
2023-11-02T14:00:22.299Z,97106.56
2023-11-02T14:02:49.366Z,97142.66
2023-11-02T14:05:16.575Z,97112.50
2023-11-02T14:07:44.073Z,97154.13
2023-11-02T14:10:13.627Z,97168.94
2023-11-02T14:12:40.416Z,97168.00
2023-11-02T14:15:09.130Z,97179.34
2023-11-02T14:17:36.376Z,97190.66
2023-11-02T14:20:08.226Z,97215.97
2023-11-02T14:22:35.203Z,97208.13
2023-11-02T14:25:06.039Z,97223.72
2023-11-02T14:27:35.294Z,97221.28
2023-11-02T14:30:04.574Z,97238.59
2023-11-02T14:32:33.662Z,97233.47
2023-11-02T14:35:05.729Z,97226.84
2023-11-02T14:37:32.927Z,97267.19
2023-11-02T14:40:01.980Z,97260.22
2023-11-02T14:42:31.030Z,97279.19
2023-11-02T14:45:01.633Z,97271.50
2023-11-02T14:47:28.551Z,97264.03
2023-11-02T14:49:55.352Z,97267.44
2023-11-02T14:52:22.088Z,97297.53
2023-11-02T14:54:56.110Z,97305.19
2023-11-02T14:57:28.670Z,97300.16
2023-11-02T14:59:55.498Z,97320.78
2023-11-02T15:02:24.476Z,97338.78
2023-11-02T15:04:52.632Z,97331.22
2023-11-02T15:07:20.607Z,97332.19
2023-11-02T15:09:51.524Z,97355.34
2023-11-02T15:12:23.154Z,97350.19
2023-11-02T15:14:52.182Z,97367.50
2023-11-02T15:17:19.158Z,97385.69
2023-11-02T15:19:49.633Z,97378.13
2023-11-02T15:22:16.424Z,97391.78
2023-11-02T15:24:45.682Z,97392.78
2023-11-02T15:27:35.903Z,97405.66
2023-11-02T15:30:07.697Z,97392.94
2023-11-02T15:32:38.495Z,97405.09
2023-11-02T15:35:06.251Z,97391.56
2023-11-02T15:37:33.144Z,97430.19
2023-11-02T15:39:59.979Z,97446.38
2023-11-02T15:42:29.138Z,97457.69
2023-11-02T15:44:57.237Z,97459.38
2023-11-02T15:47:26.037Z,97460.19
2023-11-02T15:49:56.792Z,97474.91
2023-11-02T15:52:24.188Z,97457.72
2023-11-02T15:54:51.648Z,97454.38
2023-11-02T15:57:19.168Z,97472.63
2023-11-02T15:59:46.169Z,97486.31
2023-11-02T16:02:14.517Z,97503.50
2023-11-02T16:04:42.632Z,97503.69
2023-11-02T16:07:09.908Z,97514.06
2023-11-02T16:09:36.925Z,97502.97
2023-11-02T16:12:10.167Z,97516.63
2023-11-02T16:14:39.784Z,97524.34
2023-11-02T16:17:06.582Z,97540.81
2023-11-02T16:19:34.757Z,97545.22
2023-11-02T16:22:01.921Z,97528.94
2023-11-02T16:24:29.065Z,97534.19
2023-11-02T16:27:01.689Z,97572.81
2023-11-02T16:29:28.417Z,97580.66
2023-11-02T16:31:57.446Z,97538.63
2023-11-02T16:34:35.829Z,97572.97
2023-11-02T16:37:09.604Z,97601.41
2023-11-02T16:39:36.775Z,97611.88
2023-11-02T16:42:06.026Z,97613.59
2023-11-02T16:44:35.299Z,97613.75
2023-11-02T16:47:02.270Z,97635.25
2023-11-02T16:49:29.259Z,97592.38
2023-11-02T16:51:56.051Z,97645.63
2023-11-02T16:54:25.251Z,97616.53
2023-11-02T16:56:52.617Z,97655.97
2023-11-02T16:59:20.197Z,97651.78
2023-11-02T17:01:49.289Z,97677.59
2023-11-02T17:04:16.031Z,97675.84
2023-11-02T17:06:44.252Z,97686.25
2023-11-02T17:09:11.418Z,97672.50
2023-11-02T17:11:43.013Z,97690.53
2023-11-02T17:14:09.781Z,97653.63
2023-11-02T17:16:43.923Z,97680.31
2023-11-02T17:19:12.824Z,97695.72
2023-11-02T17:21:43.555Z,97672.44
2023-11-02T17:24:11.517Z,97677.72
2023-11-02T17:26:38.954Z,97707.72
2023-11-02T17:29:05.720Z,97704.28
2023-11-02T17:31:32.550Z,97709.50
2023-11-02T17:33:59.279Z,97699.22
2023-11-02T17:36:26.077Z,97726.88
2023-11-02T17:38:52.841Z,97738.03
2023-11-02T17:41:19.774Z,97720.81
2023-11-02T17:43:46.683Z,97726.84
2023-11-02T17:46:16.554Z,97739.81
2023-11-02T17:48:43.554Z,97747.56
2023-11-02T17:51:10.697Z,97731.28
2023-11-02T17:53:37.684Z,97692.72
2023-11-02T17:56:10.979Z,97728.00
2023-11-02T17:58:37.847Z,97743.50
2023-11-02T18:01:06.454Z,97759.00
2023-11-02T18:03:33.830Z,97773.66
2023-11-02T18:06:00.830Z,97765.09
2023-11-02T18:08:27.560Z,97764.34
2023-11-02T18:10:54.712Z,97782.44
2023-11-02T18:13:21.715Z,97768.59
2023-11-02T18:15:51.657Z,97779.78
2023-11-02T18:18:19.284Z,97799.72
2023-11-02T18:20:48.695Z,97766.22
2023-11-02T18:23:15.396Z,97799.75
2023-11-02T18:25:44.497Z,97795.47
2023-11-02T18:28:11.439Z,97772.44
2023-11-02T18:30:38.473Z,97809.38
2023-11-02T18:33:05.563Z,97775.06
2023-11-02T18:35:32.338Z,97831.00
2023-11-02T18:37:59.060Z,97811.28
2023-11-02T18:40:27.335Z,97812.97
2023-11-02T18:42:57.284Z,97825.03
2023-11-02T18:45:24.438Z,97813.06
2023-11-02T18:47:51.528Z,97837.16
2023-11-02T18:50:24.455Z,97825.22
2023-11-02T18:52:56.129Z,97805.44
2023-11-02T18:55:27.758Z,97821.84
2023-11-02T18:57:54.570Z,97849.47
2023-11-02T19:00:22.267Z,97861.53
2023-11-02T19:02:51.154Z,97826.34
2023-11-02T19:05:20.323Z,97855.53
2023-11-02T19:07:47.515Z,97859.06
2023-11-02T19:10:14.482Z,97862.50
2023-11-02T19:12:41.182Z,97860.72
2023-11-02T19:15:08.291Z,97877.09
2023-11-02T19:17:36.656Z,97867.69
2023-11-02T19:20:10.376Z,97881.47
2023-11-02T19:22:37.443Z,97881.47
2023-11-02T19:25:04.448Z,97883.22
2023-11-02T19:27:31.563Z,97881.59
2023-11-02T19:29:58.245Z,97872.16
2023-11-02T19:32:24.984Z,97880.72
2023-11-02T19:34:54.759Z,97898.81
2023-11-02T19:37:24.107Z,97905.81
2023-11-02T19:39:50.980Z,97882.56
2023-11-02T19:42:21.226Z,97905.81
2023-11-02T19:44:50.353Z,97902.41
2023-11-02T19:47:17.951Z,97911.00
2023-11-02T19:49:44.696Z,97869.78
2023-11-02T19:52:11.645Z,97932.66
2023-11-02T19:54:39.900Z,97934.41
2023-11-02T19:57:06.887Z,97905.97
2023-11-02T19:59:33.556Z,97886.22
2023-11-02T20:02:00.294Z,97893.09
2023-11-02T20:04:27.158Z,97924.03
2023-11-02T20:06:54.095Z,97926.66
2023-11-02T20:09:23.118Z,97933.63
2023-11-02T20:11:49.905Z,97940.53
2023-11-02T20:14:19.892Z,97925.94
2023-11-02T20:16:46.638Z,97913.88
2023-11-02T20:19:15.776Z,97941.47
2023-11-02T20:21:42.750Z,97934.59
2023-11-02T20:24:09.577Z,97959.56
2023-11-02T20:26:36.244Z,97965.59
2023-11-02T20:29:03.049Z,97964.75
2023-11-02T20:31:29.749Z,97933.72
2023-11-02T20:33:56.547Z,97973.41
2023-11-02T20:36:23.498Z,97956.19
2023-11-02T20:38:50.708Z,97926.97
2023-11-02T20:41:17.873Z,97952.81
2023-11-02T20:43:46.277Z,97983.81
2023-11-02T20:46:13.164Z,97982.97
2023-11-02T20:48:42.548Z,97961.44
2023-11-02T20:51:17.189Z,97961.38
2023-11-02T20:53:44.005Z,97980.34
2023-11-02T20:56:12.921Z,97960.59
2023-11-02T20:58:40.736Z,97991.63
2023-11-02T21:01:07.553Z,97960.63
2023-11-02T21:03:34.640Z,97976.94
2023-11-02T21:06:02.799Z,97976.19
2023-11-02T21:08:34.120Z,97984.75
2023-11-02T21:11:02.568Z,97980.44
2023-11-02T21:13:32.347Z,97995.94
2023-11-02T21:16:05.454Z,97981.28
2023-11-02T21:18:32.563Z,97999.38
2023-11-02T21:20:59.447Z,97971.84
2023-11-02T21:23:26.345Z,98002.81
2023-11-02T21:25:53.787Z,97994.22
2023-11-02T21:28:20.549Z,98014.97
2023-11-02T21:30:49.583Z,98011.50
2023-11-02T21:33:18.355Z,98015.84
2023-11-02T21:35:45.139Z,98022.78
2023-11-02T21:38:11.844Z,97990.03
2023-11-02T21:40:38.668Z,98010.72
2023-11-02T21:43:07.975Z,98019.31
2023-11-02T21:45:34.848Z,97999.50
2023-11-02T21:48:04.079Z,98024.53
2023-11-02T21:50:33.662Z,98032.31
2023-11-02T21:53:00.409Z,98006.47
2023-11-02T21:55:27.180Z,98037.50
2023-11-02T21:57:56.231Z,98020.28
2023-11-02T22:00:23.275Z,98028.94
2023-11-02T22:02:50.040Z,98041.03
2023-11-02T22:05:18.380Z,98044.47
2023-11-02T22:07:45.206Z,98025.56
2023-11-02T22:10:14.408Z,98040.19
2023-11-02T22:12:41.119Z,98050.53
2023-11-02T22:15:08.533Z,98043.59
2023-11-02T22:17:35.240Z,98054.03
2023-11-02T22:20:02.040Z,98019.56
2023-11-02T22:22:31.089Z,98057.47
2023-11-02T22:24:58.198Z,98061.78
2023-11-02T22:27:24.888Z,98033.34
2023-11-02T22:29:54.113Z,98047.06
2023-11-02T22:32:20.834Z,98033.34
2023-11-02T22:34:47.917Z,98049.69
2023-11-02T22:37:15.066Z,98030.75
2023-11-02T22:39:42.000Z,98059.16
2023-11-02T22:42:09.013Z,98034.16
2023-11-02T22:44:38.568Z,98042.81
2023-11-02T22:47:05.639Z,98060.94
2023-11-02T22:49:34.949Z,98041.91
2023-11-02T22:52:01.795Z,98069.56
2023-11-02T22:54:28.473Z,98009.25
2023-11-02T22:56:57.539Z,98047.09
2023-11-02T22:59:24.223Z,98060.91
2023-11-02T23:01:54.438Z,98073.06
2023-11-02T23:04:21.337Z,98048.03
2023-11-02T23:06:48.318Z,98066.13
2023-11-02T23:09:15.190Z,98079.97
2023-11-02T23:11:44.322Z,98074.75
2023-11-02T23:14:11.549Z,98085.22
2023-11-02T23:16:43.115Z,98096.44
2023-11-02T23:19:11.105Z,98043.91
2023-11-02T23:21:37.869Z,98091.25
2023-11-02T23:24:05.088Z,98087.81
2023-11-02T23:26:33.829Z,98101.59
2023-11-02T23:29:07.948Z,98095.53
2023-11-02T23:31:36.398Z,98113.72
2023-11-02T23:34:05.564Z,98117.16
2023-11-02T23:36:35.128Z,98109.34
2023-11-02T23:39:01.938Z,98091.28
2023-11-02T23:41:38.634Z,98115.41
2023-11-02T23:44:05.929Z,98108.53
2023-11-02T23:46:32.723Z,98118.00
2023-11-02T23:49:01.856Z,98125.78
2023-11-02T23:51:33.977Z,98128.38
2023-11-02T23:54:00.787Z,98126.66
2023-11-02T23:56:34.896Z,98089.69
2023-11-02T23:59:02.490Z,98104.34
